Terminal Aerodrome Forecast
Issued by NWS

Home | Current Version | Previous Version | Text Only | Print | Product List | Glossary On
Versions: 1 2 3 4 5 6 7 8 9 10 11 12 13
000
FTUS44 KTSA 032320
TAFRVS
TAF
KRVS 032320Z 0400/0424 24004KT P6SM BKN200
     FM040100 VRB04KT P6SM SCT090 BKN200
     FM041200 17006KT P6SM BKN070 PROB30 0412/0418 5SM -TSRA
      BKN050CB
     FM041800 VRB03KT P6SM BKN070 PROB30 0418/0424 5SM -TSRA
      BKN050CB=

USA.gov is the U.S. government's official web portal to all federal, state and local government web resources and services.